createdAt,value
2019-03-04T00:01:44.247Z,3.47
2019-03-04T00:06:49.389Z,3.40
2019-03-04T00:11:54.983Z,2.87
2019-03-04T00:17:01.498Z,3.20
2019-03-04T00:22:07.098Z,3.10
2019-03-04T00:27:12.329Z,3.17
2019-03-04T00:32:17.388Z,3.30
2019-03-04T00:37:22.520Z,3.00
2019-03-04T00:42:27.657Z,3.17
2019-03-04T00:47:32.792Z,3.10
2019-03-04T00:52:37.942Z,3.27
2019-03-04T00:57:43.450Z,3.40
2019-03-04T01:02:48.673Z,3.25
2019-03-04T01:07:54.204Z,3.33
2019-03-04T01:12:59.554Z,3.25
2019-03-04T01:18:05.211Z,3.37
2019-03-04T01:23:10.456Z,3.00
2019-03-04T01:28:16.965Z,3.13
2019-03-04T01:33:22.118Z,2.98
2019-03-04T01:38:27.861Z,2.80
2019-03-04T01:43:33.175Z,2.77
2019-03-04T01:48:39.172Z,3.10
2019-03-04T01:53:45.149Z,3.40
2019-03-04T01:58:50.200Z,3.20
2019-03-04T02:03:55.260Z,2.80
2019-03-04T02:09:01.262Z,3.05
2019-03-04T02:14:08.924Z,2.87
2019-03-04T02:19:14.313Z,3.00
2019-03-04T02:24:26.952Z,2.85
2019-03-04T02:29:33.051Z,4.00
2019-03-04T02:34:38.276Z,2.50
2019-03-04T02:39:43.442Z,2.53
2019-03-04T02:44:50.125Z,3.10
2019-03-04T02:49:55.103Z,4.30
2019-03-04T02:55:00.409Z,3.40
2019-03-04T03:00:07.038Z,2.67
2019-03-04T03:05:12.573Z,2.53
2019-03-04T03:10:17.803Z,2.40
2019-03-04T03:15:23.498Z,2.35
2019-03-04T03:20:28.966Z,2.57
2019-03-04T03:25:34.936Z,2.37
2019-03-04T03:30:40.003Z,2.50
2019-03-04T03:35:45.403Z,2.50
2019-03-04T03:40:51.245Z,2.42
2019-03-04T03:45:56.770Z,2.42
2019-03-04T03:51:01.990Z,2.15
2019-03-04T03:56:07.244Z,2.35
2019-03-04T04:01:12.376Z,2.30
2019-03-04T04:06:18.615Z,2.22
2019-03-04T04:11:23.856Z,2.40
2019-03-04T04:16:29.020Z,2.43
2019-03-04T04:21:34.258Z,1.98
2019-03-04T04:26:39.413Z,2.23
2019-03-04T04:31:45.250Z,2.30
2019-03-04T04:36:50.421Z,2.20
2019-03-04T04:41:55.603Z,2.10
2019-03-04T04:47:03.007Z,2.17
2019-03-04T04:52:08.650Z,1.90
2019-03-04T04:57:13.813Z,2.03
2019-03-04T05:02:18.974Z,2.30
2019-03-04T05:07:24.221Z,2.40
2019-03-04T05:12:29.818Z,2.12
2019-03-04T05:17:36.025Z,1.98
2019-03-04T05:22:41.585Z,2.30
2019-03-04T05:27:46.826Z,1.82
2019-03-04T05:32:52.629Z,1.93
2019-03-04T05:37:57.801Z,2.30
2019-03-04T05:43:03.048Z,2.10
2019-03-04T05:48:08.297Z,2.10
2019-03-04T05:53:13.976Z,2.10
2019-03-04T05:58:19.248Z,2.20
2019-03-04T06:03:25.078Z,1.90
2019-03-04T06:08:30.145Z,2.15
2019-03-04T06:13:35.653Z,2.33
2019-03-04T06:18:41.234Z,2.00
2019-03-04T06:23:46.484Z,2.58
2019-03-04T06:28:52.070Z,1.80
2019-03-04T06:33:58.191Z,2.10
2019-03-04T06:39:06.422Z,1.77
2019-03-04T06:44:11.736Z,1.98
2019-03-04T06:49:17.847Z,1.90
2019-03-04T06:55:04.881Z,2.20
2019-03-04T07:00:34.443Z,2.02
2019-03-04T07:05:50.837Z,2.02
2019-03-04T07:10:56.457Z,2.00
2019-03-04T07:16:03.443Z,2.10
2019-03-04T07:21:08.735Z,2.20
2019-03-04T07:26:14.478Z,2.37
2019-03-04T07:31:19.725Z,1.95
2019-03-04T07:36:25.257Z,1.85
2019-03-04T07:41:35.450Z,2.05
2019-03-04T07:46:42.024Z,1.92
2019-03-04T07:51:48.427Z,1.70
2019-03-04T07:56:54.232Z,1.92
2019-03-04T08:01:59.584Z,1.90
2019-03-04T08:07:45.366Z,2.00
2019-03-04T08:12:57.588Z,1.90
2019-03-04T08:18:04.609Z,1.85
2019-03-04T08:23:10.200Z,2.17
2019-03-04T08:28:16.604Z,1.72
2019-03-04T08:33:21.863Z,1.70
2019-03-04T08:38:27.119Z,1.82
2019-03-04T08:43:32.684Z,1.67
2019-03-04T08:48:38.287Z,1.90
2019-03-04T08:53:44.403Z,1.92
2019-03-04T08:58:51.539Z,1.85
2019-03-04T09:03:56.866Z,1.30
2019-03-04T09:09:02.126Z,1.40
2019-03-04T09:14:09.409Z,1.45
2019-03-04T09:19:15.046Z,1.40
2019-03-04T09:24:20.407Z,1.37
2019-03-04T09:29:26.252Z,1.40
2019-03-04T09:34:32.571Z,1.80
2019-03-04T09:39:37.885Z,1.72
2019-03-04T09:44:43.543Z,1.95
2019-03-04T09:49:48.789Z,1.55
2019-03-04T09:54:54.045Z,1.50
2019-03-04T09:59:59.406Z,1.25
2019-03-04T10:05:35.297Z,1.32
2019-03-04T10:11:31.568Z,1.20
2019-03-04T10:16:56.466Z,1.50
2019-03-04T10:22:28.917Z,1.40
2019-03-04T10:28:03.709Z,1.40
2019-03-04T10:34:00.889Z,1.37
2019-03-04T10:39:34.286Z,1.40
2019-03-04T10:45:14.302Z,1.30
2019-03-04T10:50:19.553Z,1.40
2019-03-04T10:55:25.379Z,1.10
2019-03-04T11:00:30.628Z,1.10
2019-03-04T11:05:36.934Z,1.02
2019-03-04T11:10:42.641Z,1.10
2019-03-04T11:15:48.247Z,0.90
2019-03-04T11:20:53.522Z,0.70
2019-03-04T11:25:58.999Z,0.72
2019-03-04T11:31:04.398Z,1.10
2019-03-04T11:36:09.658Z,1.05
2019-03-04T11:41:17.616Z,0.70
2019-03-04T11:46:24.775Z,0.70
2019-03-04T11:51:30.580Z,0.68
2019-03-04T11:56:36.053Z,0.93
2019-03-04T12:01:45.391Z,0.72
2019-03-04T12:06:51.284Z,0.70
2019-03-04T12:11:57.008Z,0.80
2019-03-04T12:17:02.747Z,0.72
2019-03-04T12:22:08.461Z,0.80
2019-03-04T12:27:14.127Z,0.80
2019-03-04T12:32:24.714Z,0.82
2019-03-04T12:37:31.554Z,0.75
2019-03-04T12:42:36.933Z,1.12
2019-03-04T12:47:43.089Z,0.80
2019-03-04T12:52:48.328Z,0.80
2019-03-04T12:57:53.730Z,0.90
2019-03-04T13:02:59.006Z,0.82
2019-03-04T13:08:05.533Z,0.90
2019-03-04T13:13:10.850Z,1.07
2019-03-04T13:18:16.108Z,0.90
2019-03-04T13:23:21.368Z,0.75
2019-03-04T13:28:27.176Z,0.90
2019-03-04T13:33:32.481Z,1.00
2019-03-04T13:38:37.839Z,0.90
2019-03-04T13:43:43.200Z,0.88
2019-03-04T13:48:49.682Z,0.80
2019-03-04T13:53:55.215Z,0.90
2019-03-04T13:59:00.663Z,0.80
2019-03-04T14:04:05.932Z,0.73
2019-03-04T14:09:12.378Z,0.75
2019-03-04T14:14:18.017Z,0.90
2019-03-04T14:19:23.399Z,0.98
2019-03-04T14:24:28.772Z,0.90
2019-03-04T14:29:34.031Z,0.98
2019-03-04T14:34:39.297Z,0.93
2019-03-04T14:39:46.358Z,0.78
2019-03-04T14:44:52.113Z,1.10
2019-03-04T14:50:09.191Z,0.80
2019-03-04T14:55:06.131Z,1.10
2019-03-04T15:00:17.192Z,0.82
2019-03-04T15:05:22.907Z,0.88
2019-03-04T15:10:28.167Z,0.85
2019-03-04T15:15:33.418Z,0.85
2019-03-04T15:20:38.802Z,0.90
2019-03-04T15:25:44.066Z,0.93
2019-03-04T15:30:51.623Z,0.90
2019-03-04T15:35:57.230Z,0.70
2019-03-04T15:41:02.503Z,0.70
2019-03-04T15:46:07.790Z,0.68
2019-03-04T15:51:13.436Z,0.57
2019-03-04T15:56:19.385Z,0.57
2019-03-04T16:01:24.929Z,0.53
2019-03-04T16:06:30.593Z,0.60
2019-03-04T16:11:35.833Z,0.50
2019-03-04T16:16:41.344Z,0.50
2019-03-04T16:21:46.888Z,0.70
2019-03-04T16:26:51.961Z,0.60
2019-03-04T16:31:57.141Z,0.70
2019-03-04T16:37:06.449Z,0.80
2019-03-04T16:42:12.072Z,0.80
2019-03-04T16:47:17.617Z,0.67
2019-03-04T16:52:26.433Z,0.68
2019-03-04T16:57:32.023Z,0.90
2019-03-04T17:02:37.238Z,0.80
2019-03-04T17:07:42.502Z,0.80
2019-03-04T17:12:47.658Z,0.90
2019-03-04T17:17:52.815Z,1.00
2019-03-04T17:22:59.074Z,0.97
2019-03-04T17:28:04.346Z,0.90
2019-03-04T17:33:09.504Z,0.90
2019-03-04T17:38:15.123Z,0.80
2019-03-04T17:43:20.616Z,1.00
2019-03-04T17:48:27.873Z,1.03
2019-03-04T17:53:33.038Z,1.17
2019-03-04T17:58:38.500Z,1.40
2019-03-04T18:03:44.728Z,1.40
2019-03-04T18:08:50.221Z,1.57
2019-03-04T18:13:55.381Z,1.57
2019-03-04T18:19:00.877Z,1.60
2019-03-04T18:24:06.486Z,2.20
2019-03-04T18:29:28.365Z,2.10
2019-03-04T18:34:58.856Z,2.37
2019-03-04T18:40:50.470Z,2.47
2019-03-04T18:46:42.531Z,2.30
2019-03-04T18:51:48.908Z,2.67
2019-03-04T18:56:54.249Z,3.10
2019-03-04T19:01:59.656Z,2.90
2019-03-04T19:07:05.000Z,3.47
2019-03-04T19:12:10.239Z,3.33
2019-03-04T19:17:15.651Z,3.50
2019-03-04T19:22:20.809Z,3.50
2019-03-04T19:27:25.992Z,3.53
2019-03-04T19:32:31.583Z,4.07
2019-03-04T19:37:37.821Z,4.00
2019-03-04T19:42:43.045Z,4.10
2019-03-04T19:47:49.044Z,4.37
2019-03-04T19:52:57.375Z,3.90
2019-03-04T19:58:02.542Z,4.07
2019-03-04T20:03:08.724Z,4.30
2019-03-04T20:08:14.313Z,3.60
2019-03-04T20:13:19.672Z,3.90
2019-03-04T20:18:24.831Z,4.00
2019-03-04T20:23:30.002Z,3.97
2019-03-04T20:28:35.153Z,3.87
2019-03-04T20:33:40.693Z,3.90
2019-03-04T20:38:48.161Z,4.10
2019-03-04T20:43:53.315Z,3.97
2019-03-04T20:48:59.488Z,4.20
2019-03-04T20:54:04.810Z,3.97
2019-03-04T20:59:09.964Z,4.27
2019-03-04T21:04:16.385Z,4.33
2019-03-04T21:09:22.987Z,4.47
2019-03-04T21:14:28.407Z,4.53
2019-03-04T21:19:33.983Z,4.73
2019-03-04T21:24:40.891Z,4.13
2019-03-04T21:30:22.090Z,4.10
2019-03-04T21:36:04.594Z,4.60
2019-03-04T21:41:20.320Z,4.07
2019-03-04T21:46:52.507Z,3.73
2019-03-04T21:52:36.318Z,3.93
2019-03-04T21:57:45.663Z,4.20
2019-03-04T22:02:58.060Z,3.70
2019-03-04T22:08:03.238Z,3.47
2019-03-04T22:13:08.473Z,3.63
2019-03-04T22:18:14.871Z,3.07
2019-03-04T22:23:20.269Z,3.50
2019-03-04T22:28:25.736Z,3.07
2019-03-04T22:33:30.927Z,3.23
2019-03-04T22:38:36.080Z,3.50
2019-03-04T22:43:41.254Z,3.20
2019-03-04T22:48:46.427Z,3.07
2019-03-04T22:53:51.730Z,2.80
2019-03-04T22:58:56.864Z,2.73
2019-03-04T23:04:23.136Z,2.80
2019-03-04T23:09:29.608Z,2.93
2019-03-04T23:14:34.887Z,3.00
2019-03-04T23:19:40.685Z,2.50
2019-03-04T23:24:45.847Z,2.90
2019-03-04T23:29:51.149Z,2.33
2019-03-04T23:34:56.304Z,2.23
2019-03-04T23:40:01.763Z,2.50
2019-03-04T23:45:09.354Z,2.60
2019-03-04T23:50:20.179Z,2.57
2019-03-04T23:55:25.340Z,2.27
